Time;durP1;ratioP1;P1;durP2;ratioP2;P2;SDS_P1;SDS_P2;PMS_P1;PMS_P2;Temp;Humidity;BMP_temperature;BMP_pressure;BME280_temperature;BME280_humidity;BME280_pressure;Samples;Min_cycle;Max_cycle;Signal;HPM_P1;HPM_P2
2022/07/26 00:00:11;;;;;;;9.38;2.20;;;21.00;63.40;;;;;;5036413;28;20119;-71
2022/07/26 00:02:39;;;;;;;7.80;2.35;;;21.00;63.50;;;;;;5019712;28;20364;-71
2022/07/26 00:05:07;;;;;;;11.02;2.50;;;20.90;63.60;;;;;;5048990;28;20120;-71
2022/07/26 00:07:34;;;;;;;7.63;2.40;;;20.90;63.20;;;;;;5048710;28;20041;-71
2022/07/26 00:10:01;;;;;;;8.38;1.70;;;20.90;63.40;;;;;;5051556;28;20052;-71
2022/07/26 00:12:28;;;;;;;6.95;1.58;;;20.80;63.30;;;;;;5048619;28;20048;-71
2022/07/26 00:14:55;;;;;;;9.18;2.17;;;20.80;63.20;;;;;;5049273;28;20049;-71
2022/07/26 00:17:22;;;;;;;7.85;2.25;;;20.80;63.30;;;;;;5019830;28;20050;-71
2022/07/26 00:19:49;;;;;;;8.70;2.03;;;20.90;63.10;;;;;;5037559;28;20106;-72
2022/07/26 00:25:02;;;;;;;9.88;2.38;;;20.90;63.20;;;;;;5032717;28;20064;-71
2022/07/26 00:27:29;;;;;;;8.43;2.00;;;20.90;63.10;;;;;;5022770;28;20048;-72
2022/07/26 00:29:56;;;;;;;9.82;2.45;;;20.90;63.10;;;;;;5019754;28;20055;-71
2022/07/26 00:32:23;;;;;;;6.00;2.08;;;20.90;63.10;;;;;;5051998;28;20088;-71
2022/07/26 00:34:51;;;;;;;7.60;2.08;;;20.90;63.10;;;;;;5037502;28;20533;-71
2022/07/26 00:37:18;;;;;;;5.40;1.75;;;20.90;63.00;;;;;;5015053;28;20052;-71
2022/07/26 00:39:45;;;;;;;5.60;2.30;;;20.90;63.10;;;;;;5050519;28;20097;-72
2022/07/26 00:42:12;;;;;;;5.55;1.70;;;20.90;63.20;;;;;;5054626;28;20159;-72
2022/07/26 00:44:44;;;;;;;8.25;2.13;;;20.90;63.20;;;;;;5049133;28;20366;-71
2022/07/26 00:47:11;;;;;;;8.07;2.40;;;20.90;63.20;;;;;;5012752;28;20044;-72
2022/07/26 00:49:38;;;;;;;7.72;2.13;;;20.80;63.40;;;;;;5032895;28;20048;-73
2022/07/26 00:52:05;;;;;;;8.20;2.47;;;20.90;63.10;;;;;;5052301;28;20450;-71
2022/07/26 00:54:33;;;;;;;6.80;2.10;;;21.00;63.20;;;;;;5026535;28;20048;-71
2022/07/26 00:57:00;;;;;;;12.57;2.00;;;21.00;63.10;;;;;;5012111;28;20462;-71
2022/07/26 00:59:27;;;;;;;7.57;2.03;;;21.00;62.90;;;;;;5054060;28;20106;-71
2022/07/26 01:01:54;;;;;;;11.68;2.92;;;20.90;63.00;;;;;;5047646;28;20044;-71
2022/07/26 01:04:21;;;;;;;5.68;2.13;;;20.80;63.60;;;;;;5035013;28;20116;-71
2022/07/26 01:06:48;;;;;;;10.15;2.63;;;20.80;63.60;;;;;;5014089;28;20046;-71
2022/07/26 01:09:15;;;;;;;7.28;2.00;;;20.80;63.60;;;;;;5046286;28;20060;-71
2022/07/26 01:11:44;;;;;;;9.70;2.50;;;20.90;63.60;;;;;;5038403;28;20045;-72
2022/07/26 01:14:11;;;;;;;7.82;2.30;;;20.80;63.80;;;;;;5038187;28;20481;-71
2022/07/26 01:16:38;;;;;;;7.85;2.95;;;20.80;63.90;;;;;;5032197;28;20064;-71
2022/07/26 01:19:05;;;;;;;6.32;2.30;;;20.80;64.20;;;;;;5049967;28;20194;-71
2022/07/26 01:21:32;;;;;;;8.23;2.50;;;20.80;64.20;;;;;;5036138;28;20082;-72
2022/07/26 01:23:59;;;;;;;7.13;2.10;;;20.80;64.00;;;;;;5051908;28;20063;-72
2022/07/26 01:26:27;;;;;;;6.97;2.65;;;20.90;63.70;;;;;;5026977;28;20525;-72
2022/07/26 01:28:54;;;;;;;8.07;2.30;;;20.90;63.90;;;;;;5045264;28;20257;-72
2022/07/26 01:31:21;;;;;;;9.32;2.33;;;20.80;64.10;;;;;;5028102;28;20083;-71
2022/07/26 01:33:48;;;;;;;7.18;2.35;;;20.70;64.90;;;;;;5043082;28;20107;-71
2022/07/26 01:36:15;;;;;;;10.43;2.53;;;20.70;65.30;;;;;;5028202;28;20098;-71
2022/07/26 01:38:44;;;;;;;7.78;2.30;;;20.60;65.50;;;;;;5009602;28;20124;-72
2022/07/26 01:41:12;;;;;;;11.00;2.42;;;20.60;65.80;;;;;;5045342;28;20136;-72
2022/07/26 01:43:39;;;;;;;6.10;2.47;;;20.60;65.80;;;;;;5047436;28;20530;-71
2022/07/26 01:46:06;;;;;;;10.75;3.08;;;20.60;65.90;;;;;;5016121;28;20056;-73
2022/07/26 01:48:33;;;;;;;6.78;2.45;;;20.40;66.60;;;;;;5050093;28;20453;-71
2022/07/26 01:50:59;;;;;;;10.10;2.88;;;20.30;66.90;;;;;;5048196;28;20129;-71
2022/07/26 01:53:26;;;;;;;10.80;2.70;;;20.30;67.20;;;;;;5048959;28;20144;-72
2022/07/26 01:55:53;;;;;;;10.65;2.78;;;20.10;67.40;;;;;;5028063;28;20424;-71
2022/07/26 01:58:20;;;;;;;11.38;2.63;;;20.20;67.50;;;;;;5031177;28;20049;-71
2022/07/26 02:00:47;;;;;;;7.90;2.60;;;20.20;67.50;;;;;;5049026;28;20045;-72
2022/07/26 02:03:14;;;;;;;8.27;2.20;;;20.30;67.50;;;;;;5014674;28;20072;-71
2022/07/26 02:05:41;;;;;;;8.27;3.10;;;20.30;67.10;;;;;;5049786;28;20461;-70
2022/07/26 02:08:09;;;;;;;9.38;2.50;;;20.30;67.30;;;;;;5047156;28;20502;-71
2022/07/26 02:13:22;;;;;;;9.85;2.15;;;20.30;67.20;;;;;;5022860;28;20048;-72
2022/07/26 02:15:49;;;;;;;6.43;2.08;;;20.30;66.80;;;;;;5048735;28;20041;-72
2022/07/26 02:18:15;;;;;;;9.18;2.75;;;20.30;66.60;;;;;;5049879;28;20045;-71
2022/07/26 02:20:41;;;;;;;8.15;2.28;;;20.40;66.60;;;;;;5066614;28;20462;-71
2022/07/26 02:23:07;;;;;;;11.77;2.47;;;20.30;66.60;;;;;;5031164;28;20064;-71
2022/07/26 02:25:34;;;;;;;9.23;2.30;;;20.20;66.60;;;;;;5034456;28;20045;-71
2022/07/26 02:28:02;;;;;;;5.78;1.70;;;20.20;66.70;;;;;;5051389;28;20123;-71
2022/07/26 02:30:28;;;;;;;;;;;20.10;66.30;;;;;;5048277;28;20045;-71
2022/07/26 02:32:55;;;;;;;7.38;1.77;;;20.00;66.30;;;;;;5041032;28;19920;-71
2022/07/26 02:35:22;;;;;;;9.15;1.83;;;20.10;66.30;;;;;;5017373;28;20534;-71
2022/07/26 02:37:49;;;;;;;7.90;1.88;;;20.10;66.20;;;;;;5033851;28;20052;-71
2022/07/26 02:40:15;;;;;;;8.20;2.45;;;20.00;66.50;;;;;;5013928;28;20735;-71
2022/07/26 02:42:42;;;;;;;6.97;1.80;;;20.00;66.60;;;;;;5046982;28;20115;-72
2022/07/26 02:45:09;;;;;;;9.20;2.00;;;20.00;66.60;;;;;;5046342;28;20056;-71
2022/07/26 02:47:45;;;;;;;9.52;1.83;;;19.90;67.10;;;;;;5045155;28;20037;-72
2022/07/26 02:50:12;;;;;;;6.93;1.70;;;19.90;67.20;;;;;;5047887;28;20049;-71
2022/07/26 02:52:39;;;;;;;9.10;2.03;;;19.90;67.30;;;;;;5047089;28;20142;-72
2022/07/26 02:55:06;;;;;;;8.07;1.92;;;20.10;66.60;;;;;;5046269;28;20049;-71
2022/07/26 02:57:32;;;;;;;7.22;1.88;;;20.00;66.40;;;;;;5032924;28;20087;-72
2022/07/26 02:59:59;;;;;;;7.88;2.03;;;19.90;66.80;;;;;;5029742;28;20065;-72
2022/07/26 03:02:26;;;;;;;7.35;1.83;;;19.90;66.90;;;;;;5043728;28;20045;-71
2022/07/26 03:04:52;;;;;;;8.95;1.92;;;19.80;66.90;;;;;;5049854;28;20045;-72
2022/07/26 03:07:18;;;;;;;8.38;2.17;;;19.70;67.30;;;;;;5048576;28;20088;-71
2022/07/26 03:09:45;;;;;;;15.43;2.22;;;19.70;67.30;;;;;;5029817;28;20049;-71
2022/07/26 03:12:12;;;;;;;9.68;1.75;;;19.80;67.40;;;;;;5049747;28;20045;-71
2022/07/26 03:14:38;;;;;;;6.10;1.60;;;19.70;67.70;;;;;;5044369;28;20052;-72
2022/07/26 03:17:03;;;;;;;9.60;1.77;;;19.60;67.90;;;;;;5049291;28;20049;-70
2022/07/26 03:19:31;;;;;;;8.85;2.10;;;19.60;68.10;;;;;;5049076;28;20049;-71
2022/07/26 03:21:57;;;;;;;4.22;1.52;;;19.60;68.30;;;;;;5044317;28;20068;-72
2022/07/26 03:24:24;;;;;;;7.57;1.77;;;19.60;68.20;;;;;;5043163;28;20058;-71
2022/07/26 03:26:51;;;;;;;7.50;2.05;;;19.70;68.10;;;;;;5047419;28;20569;-71
2022/07/26 03:29:18;;;;;;;4.75;1.30;;;19.70;67.80;;;;;;5047878;28;20060;-71
2022/07/26 03:31:45;;;;;;;9.25;1.80;;;19.70;68.10;;;;;;5016380;28;20056;-71
2022/07/26 03:34:12;;;;;;;8.32;2.08;;;19.80;67.90;;;;;;5048778;28;20049;-71
2022/07/26 03:36:42;;;;;;;4.70;1.52;;;19.80;67.90;;;;;;5031904;28;20052;-71
2022/07/26 03:39:08;;;;;;;11.57;2.88;;;19.80;67.90;;;;;;5049178;28;20137;-71
2022/07/26 03:41:35;;;;;;;9.82;2.13;;;19.80;68.20;;;;;;5029407;28;20080;-71
2022/07/26 03:44:02;;;;;;;6.68;1.70;;;19.80;67.90;;;;;;5042082;28;20045;-72
2022/07/26 03:46:29;;;;;;;6.75;1.55;;;19.80;68.10;;;;;;5048420;28;20040;-70
2022/07/26 03:48:56;;;;;;;7.50;1.65;;;19.70;68.30;;;;;;5047963;28;20045;-72
2022/07/26 03:51:22;;;;;;;5.70;1.52;;;19.70;68.40;;;;;;4995414;28;20041;-71
2022/07/26 03:53:49;;;;;;;8.60;1.60;;;19.70;68.40;;;;;;5030338;28;20049;-71
2022/07/26 03:56:33;;;;;;;7.10;1.55;;;19.70;68.60;;;;;;5040350;28;20076;-71
2022/07/26 03:59:00;;;;;;;8.43;1.80;;;19.70;68.80;;;;;;5020502;28;20387;-71
2022/07/26 04:01:26;;;;;;;5.47;1.33;;;19.70;68.70;;;;;;5028672;28;20049;-71
2022/07/26 04:03:53;;;;;;;10.50;1.80;;;19.80;68.40;;;;;;5045113;28;20099;-72
2022/07/26 04:06:19;;;;;;;6.20;1.55;;;19.70;68.90;;;;;;5045867;28;20055;-72
2022/07/26 04:08:46;;;;;;;6.00;1.73;;;19.70;68.90;;;;;;5031314;28;20041;-74
2022/07/26 04:11:13;;;;;;;4.88;1.35;;;19.70;68.70;;;;;;5045372;28;20129;-73
2022/07/26 04:13:40;;;;;;;7.57;1.55;;;19.70;68.50;;;;;;5047541;28;20053;-72
2022/07/26 04:16:06;;;;;;;7.13;1.58;;;19.80;68.50;;;;;;5047839;28;20045;-72
2022/07/26 04:18:32;;;;;;;6.97;1.30;;;19.80;68.40;;;;;;5048616;28;20102;-72
2022/07/26 04:20:59;;;;;;;3.97;1.30;;;19.80;68.70;;;;;;5047750;28;20767;-72
2022/07/26 04:23:26;;;;;;;7.22;1.95;;;19.70;68.80;;;;;;5030316;28;20056;-72
2022/07/26 04:25:53;;;;;;;9.27;1.55;;;19.60;69.10;;;;;;5044568;28;20065;-71
2022/07/26 04:28:18;;;;;;;5.82;1.70;;;19.60;69.50;;;;;;5042126;28;20042;-72
2022/07/26 04:30:45;;;;;;;11.77;1.60;;;19.70;69.60;;;;;;5061977;28;20162;-71
2022/07/26 04:33:15;;;;;;;5.97;1.67;;;19.60;69.70;;;;;;5032181;28;20060;-71
2022/07/26 04:35:41;;;;;;;10.35;1.83;;;19.70;69.50;;;;;;5014435;28;20134;-71
2022/07/26 04:38:08;;;;;;;11.88;1.77;;;19.60;69.50;;;;;;5047566;28;20114;-71
2022/07/26 04:40:35;;;;;;;6.22;2.00;;;19.60;70.00;;;;;;5025199;28;20355;-72
2022/07/26 04:43:03;;;;;;;7.93;1.70;;;19.60;69.90;;;;;;5042236;28;20046;-73
2022/07/26 04:45:30;;;;;;;7.13;1.90;;;19.60;70.80;;;;;;5022272;28;20463;-72
2022/07/26 04:47:57;;;;;;;9.02;1.40;;;19.60;70.10;;;;;;5045410;28;20478;-72
2022/07/26 04:50:26;;;;;;;11.00;1.77;;;19.40;70.80;;;;;;5044796;28;20386;-72
2022/07/26 04:52:54;;;;;;;9.65;1.88;;;19.40;71.10;;;;;;5012400;28;20368;-72
2022/07/26 04:55:20;;;;;;;6.15;1.65;;;19.40;71.30;;;;;;5025907;28;20037;-72
2022/07/26 04:57:47;;;;;;;8.43;1.52;;;19.40;71.20;;;;;;5027402;28;20040;-72
2022/07/26 05:00:16;;;;;;;10.90;2.22;;;19.40;71.30;;;;;;5030137;28;20044;-72
2022/07/26 05:02:43;;;;;;;8.00;2.10;;;19.50;71.30;;;;;;5016698;28;20041;-72
2022/07/26 05:05:10;;;;;;;10.63;2.10;;;19.50;71.50;;;;;;5014102;28;20089;-72
2022/07/26 05:07:44;;;;;;;8.43;1.85;;;19.50;71.50;;;;;;5047108;28;20395;-72
2022/07/26 05:10:12;;;;;;;12.20;2.10;;;19.60;71.50;;;;;;5043921;28;20049;-72
2022/07/26 05:12:39;;;;;;;8.07;2.00;;;19.50;71.50;;;;;;5038257;28;20750;-71
2022/07/26 05:15:07;;;;;;;7.57;1.95;;;19.50;71.70;;;;;;5048091;28;20053;-71
2022/07/26 05:17:36;;;;;;;7.47;1.80;;;19.50;71.90;;;;;;5043894;28;20111;-71
2022/07/26 05:20:03;;;;;;;6.90;1.85;;;19.60;71.70;;;;;;5027478;28;20423;-71
2022/07/26 05:22:30;;;;;;;8.38;2.00;;;19.50;71.80;;;;;;5027524;28;20041;-71
2022/07/26 05:24:57;;;;;;;8.90;1.83;;;19.50;71.90;;;;;;5044715;28;20511;-73
2022/07/26 05:27:24;;;;;;;7.78;1.85;;;19.60;71.70;;;;;;5031073;28;20068;-66
2022/07/26 05:29:51;;;;;;;12.07;1.75;;;19.60;71.90;;;;;;5024761;28;20050;-65
2022/07/26 05:32:18;;;;;;;10.23;2.05;;;19.60;72.10;;;;;;5043974;28;20073;-65
2022/07/26 05:34:48;;;;;;;11.27;2.35;;;19.60;72.10;;;;;;5024900;28;20053;-66
2022/07/26 05:37:15;;;;;;;11.43;2.13;;;19.70;71.90;;;;;;5023344;28;20383;-65
2022/07/26 05:39:42;;;;;;;15.50;3.67;;;19.70;71.90;;;;;;5033343;28;20045;-64
2022/07/26 05:42:09;;;;;;;7.47;2.10;;;19.80;71.80;;;;;;5040231;28;20482;-65
2022/07/26 05:44:36;;;;;;;10.13;2.22;;;19.70;72.20;;;;;;5029508;28;20494;-66
2022/07/26 05:47:03;;;;;;;10.00;1.98;;;19.80;72.00;;;;;;5029901;28;20497;-66
2022/07/26 05:49:29;;;;;;;10.07;2.42;;;19.80;72.30;;;;;;5045646;28;20044;-66
2022/07/26 05:51:56;;;;;;;10.27;2.67;;;19.90;72.40;;;;;;5026029;28;20739;-66
2022/07/26 05:54:22;;;;;;;7.93;2.60;;;19.90;72.50;;;;;;5044829;28;21082;-66
2022/07/26 05:56:47;;;;;;;9.45;2.30;;;19.90;72.20;;;;;;5030640;28;20081;-66
2022/07/26 05:59:14;;;;;;;12.98;2.58;;;20.00;72.40;;;;;;5026729;28;20099;-66
2022/07/26 06:01:41;;;;;;;15.07;2.53;;;20.00;72.20;;;;;;5046735;28;20490;-65
2022/07/26 06:04:09;;;;;;;9.13;2.40;;;20.00;72.40;;;;;;5054005;28;20170;-65
2022/07/26 06:06:36;;;;;;;10.00;2.60;;;20.10;71.90;;;;;;5029825;28;20037;-65
2022/07/26 06:09:03;;;;;;;12.25;2.60;;;20.20;71.90;;;;;;5026581;28;20568;-65
2022/07/26 06:11:30;;;;;;;11.25;2.45;;;20.10;71.50;;;;;;5039566;28;20130;-66
2022/07/26 06:13:55;;;;;;;9.40;2.45;;;20.10;71.50;;;;;;5041689;28;20052;-65
2022/07/26 06:16:21;;;;;;;13.15;2.83;;;20.00;71.50;;;;;;5027568;28;20049;-66
2022/07/26 06:18:48;;;;;;;9.60;2.47;;;20.00;71.90;;;;;;5035455;28;20052;-64
2022/07/26 06:21:15;;;;;;;8.27;2.10;;;20.00;72.00;;;;;;5046777;28;20068;-67
2022/07/26 06:23:41;;;;;;;7.65;2.80;;;20.10;72.10;;;;;;5027959;28;20393;-64
2022/07/26 06:26:07;;;;;;;8.25;2.40;;;20.10;71.50;;;;;;5040980;28;20421;-64
2022/07/26 06:28:35;;;;;;;15.50;3.22;;;20.20;71.70;;;;;;5030848;28;20756;-65
2022/07/26 06:31:01;;;;;;;;;;;20.30;71.30;;;;;;5027982;28;20072;-65
2022/07/26 06:33:28;;;;;;;15.30;2.40;;;20.30;71.50;;;;;;5042662;28;19917;-64
2022/07/26 06:35:55;;;;;;;9.80;2.30;;;20.20;71.30;;;;;;5024934;28;20514;-65
2022/07/26 06:38:21;;;;;;;10.80;2.50;;;20.20;71.20;;;;;;5029129;28;20152;-65
2022/07/26 06:40:48;;;;;;;8.07;2.50;;;20.30;71.20;;;;;;5047084;28;20160;-64
2022/07/26 06:43:15;;;;;;;10.90;2.55;;;20.40;70.80;;;;;;5028404;28;20775;-64
2022/07/26 06:45:41;;;;;;;8.52;2.50;;;20.50;70.60;;;;;;5030526;28;20053;-65
2022/07/26 06:48:09;;;;;;;10.48;3.13;;;20.30;70.90;;;;;;4997530;28;20076;-65
2022/07/26 06:50:36;;;;;;;11.63;2.65;;;20.30;70.80;;;;;;5044584;28;20129;-64
2022/07/26 06:53:04;;;;;;;6.67;2.50;;;20.30;70.80;;;;;;5049032;28;20037;-70
2022/07/26 06:55:31;;;;;;;10.00;2.87;;;20.30;71.00;;;;;;5040478;28;20047;-71
2022/07/26 06:57:57;;;;;;;9.15;2.80;;;20.20;71.00;;;;;;5034011;28;20049;-71
2022/07/26 07:00:24;;;;;;;8.75;3.05;;;20.20;71.00;;;;;;5039004;28;20624;-71
2022/07/26 07:02:51;;;;;;;10.85;3.03;;;20.10;71.10;;;;;;5008014;28;20458;-70
2022/07/26 07:05:19;;;;;;;9.55;2.58;;;20.00;71.40;;;;;;5051348;28;20114;-71
2022/07/26 07:07:46;;;;;;;10.93;2.63;;;20.00;71.80;;;;;;5046696;28;20390;-70
2022/07/26 07:10:13;;;;;;;9.38;2.83;;;19.90;71.90;;;;;;5039235;28;20045;-72
2022/07/26 07:12:42;;;;;;;8.77;2.88;;;19.80;72.60;;;;;;5028932;28;20073;-72
2022/07/26 07:15:10;;;;;;;8.57;2.95;;;19.70;72.90;;;;;;5032870;28;20170;-71
2022/07/26 07:17:37;;;;;;;13.02;2.88;;;19.80;72.90;;;;;;5028872;28;20064;-70
2022/07/26 07:20:05;;;;;;;8.07;2.72;;;19.90;73.00;;;;;;5011759;28;20049;-71
2022/07/26 07:22:32;;;;;;;8.75;3.30;;;20.00;73.00;;;;;;5027253;28;20045;-72
2022/07/26 07:25:00;;;;;;;6.85;2.67;;;20.10;73.00;;;;;;5045204;28;20057;-72
2022/07/26 07:27:25;;;;;;;9.50;3.05;;;20.10;72.40;;;;;;5022320;28;20077;-72
2022/07/26 07:29:52;;;;;;;12.85;3.58;;;20.10;72.60;;;;;;5046659;28;20073;-72
2022/07/26 07:32:19;;;;;;;8.30;2.50;;;20.10;72.50;;;;;;5042518;28;20045;-72
2022/07/26 07:34:46;;;;;;;8.45;2.85;;;20.20;72.90;;;;;;5041060;28;20131;-70
2022/07/26 07:37:13;;;;;;;8.32;2.65;;;20.20;72.20;;;;;;5038081;28;20150;-71
2022/07/26 07:39:39;;;;;;;8.13;2.78;;;20.30;72.20;;;;;;5044040;28;20058;-73
2022/07/26 07:42:06;;;;;;;7.20;2.63;;;20.30;71.90;;;;;;5025690;28;20072;-76
2022/07/26 07:44:33;;;;;;;7.32;2.50;;;20.40;71.80;;;;;;5040420;28;20160;-75
2022/07/26 07:47:01;;;;;;;8.25;2.42;;;20.50;71.10;;;;;;5027586;28;20069;-75
2022/07/26 07:49:28;;;;;;;8.25;2.70;;;20.40;71.60;;;;;;5017600;28;20099;-75
2022/07/26 07:51:55;;;;;;;8.02;2.75;;;20.30;71.60;;;;;;5027469;28;20160;-75
2022/07/26 07:54:22;;;;;;;9.82;3.10;;;20.20;70.80;;;;;;5028340;28;20076;-74
2022/07/26 07:56:50;;;;;;;9.93;2.83;;;20.40;70.80;;;;;;5040077;28;20048;-73
2022/07/26 07:59:17;;;;;;;8.15;2.33;;;20.60;70.10;;;;;;5026930;28;20045;-75
2022/07/26 08:01:43;;;;;;;9.25;2.80;;;20.80;69.30;;;;;;5030012;28;20048;-75
2022/07/26 08:04:10;;;;;;;8.02;2.30;;;20.60;69.30;;;;;;5065733;28;20083;-75
2022/07/26 08:06:37;;;;;;;7.80;2.65;;;20.70;70.20;;;;;;5029119;28;20049;-75
2022/07/26 08:09:04;;;;;;;6.43;2.40;;;20.70;68.70;;;;;;5042753;28;20045;-75
2022/07/26 08:11:31;;;;;;;8.10;2.33;;;20.70;68.80;;;;;;5027358;28;20133;-75
2022/07/26 08:13:58;;;;;;;7.63;2.30;;;21.00;68.00;;;;;;5048978;28;20059;-75
2022/07/26 08:16:24;;;;;;;7.20;2.40;;;21.00;66.80;;;;;;5032367;28;20553;-75
2022/07/26 08:18:49;;;;;;;7.13;2.10;;;20.90;67.30;;;;;;5042637;28;20474;-69
2022/07/26 08:21:15;;;;;;;7.32;2.17;;;20.90;68.30;;;;;;5041710;28;20052;-69
2022/07/26 08:23:43;;;;;;;8.15;2.42;;;21.10;67.10;;;;;;5028368;28;20049;-69
2022/07/26 08:26:09;;;;;;;6.78;2.60;;;21.30;66.20;;;;;;5036505;28;20206;-69
2022/07/26 08:28:35;;;;;;;10.05;2.65;;;21.40;65.60;;;;;;5029021;28;20045;-68
2022/07/26 08:31:02;;;;;;;7.07;2.15;;;21.10;65.90;;;;;;5044761;28;20623;-69
2022/07/26 08:33:31;;;;;;;9.05;2.38;;;21.20;66.00;;;;;;5038503;28;20755;-70
2022/07/26 08:35:56;;;;;;;9.05;2.55;;;21.20;66.20;;;;;;5027649;28;20414;-69
2022/07/26 08:38:22;;;;;;;8.82;2.72;;;21.30;65.90;;;;;;5033778;28;20052;-70
2022/07/26 08:40:49;;;;;;;10.35;2.55;;;21.40;65.80;;;;;;5027683;28;20128;-69
2022/07/26 08:43:16;;;;;;;9.75;2.85;;;21.40;65.60;;;;;;5027236;28;20049;-68
2022/07/26 08:45:44;;;;;;;4.78;2.22;;;21.60;65.00;;;;;;5040669;28;20041;-69
2022/07/26 08:48:11;;;;;;;5.93;2.40;;;21.70;64.90;;;;;;5011451;28;20071;-70
2022/07/26 08:50:39;;;;;;;6.82;2.67;;;21.80;64.90;;;;;;5042108;28;20175;-68
2022/07/26 08:53:08;;;;;;;6.38;2.40;;;21.60;64.20;;;;;;5043245;28;20076;-69
2022/07/26 08:55:35;;;;;;;14.23;2.38;;;21.40;65.00;;;;;;5025464;28;20110;-72
2022/07/26 08:58:08;;;;;;;6.25;2.33;;;21.50;65.10;;;;;;5041850;28;20056;-71
2022/07/26 09:00:36;;;;;;;8.35;2.10;;;21.40;64.80;;;;;;5055226;28;20411;-71
2022/07/26 09:03:03;;;;;;;;;;;21.40;65.20;;;;;;5041460;28;20072;-72
2022/07/26 09:05:35;;;;;;;5.65;2.22;;;21.30;65.40;;;;;;5064510;28;19950;-71
2022/07/26 09:08:24;;;;;;;8.68;2.65;;;21.40;64.40;;;;;;5047713;28;20115;-71
2022/07/26 09:10:51;;;;;;;6.30;2.50;;;21.50;64.30;;;;;;5039205;28;20045;-71
2022/07/26 09:13:19;;;;;;;5.90;2.30;;;21.60;63.90;;;;;;5028252;28;20390;-73
2022/07/26 09:15:46;;;;;;;7.68;2.40;;;21.50;63.90;;;;;;5028891;28;20045;-71
2022/07/26 09:18:33;;;;;;;8.13;2.45;;;21.50;64.40;;;;;;5041755;28;20112;-71
2022/07/26 09:21:01;;;;;;;5.50;2.45;;;21.50;64.60;;;;;;5027831;28;20431;-71
2022/07/26 09:23:38;;;;;;;9.43;2.80;;;21.40;63.70;;;;;;5043780;28;20265;-71
2022/07/26 09:26:04;;;;;;;11.60;3.15;;;21.50;63.40;;;;;;5045176;28;20041;-72
2022/07/26 09:28:31;;;;;;;6.65;2.72;;;21.40;63.10;;;;;;5042610;28;20115;-71
2022/07/26 09:31:02;;;;;;;8.35;2.40;;;21.40;63.30;;;;;;5034996;28;20044;-71
2022/07/26 09:33:49;;;;;;;7.72;1.75;;;21.30;63.40;;;;;;5026329;28;20045;-72
2022/07/26 09:36:16;;;;;;;2.97;1.42;;;20.90;67.10;;;;;;5048634;28;20045;-72
2022/07/26 09:38:45;;;;;;;4.10;1.45;;;20.10;70.90;;;;;;5040569;28;20793;-70
2022/07/26 09:41:20;;;;;;;3.42;1.20;;;19.50;73.50;;;;;;5031421;28;20059;-70
2022/07/26 09:43:48;;;;;;;4.80;1.50;;;19.40;74.80;;;;;;5059830;28;20139;-72
2022/07/26 09:46:15;;;;;;;3.85;1.20;;;19.10;77.00;;;;;;5046917;28;20040;-71
2022/07/26 09:48:42;;;;;;;3.63;1.08;;;18.90;77.40;;;;;;5017288;28;20041;-71
2022/07/26 09:51:09;;;;;;;1.67;1.38;;;18.80;78.10;;;;;;5032055;28;20041;-71
2022/07/26 09:53:46;;;;;;;2.50;1.10;;;18.60;78.50;;;;;;5046511;28;20052;-71
2022/07/26 09:56:13;;;;;;;3.05;1.48;;;18.50;79.60;;;;;;5038008;28;20059;-71
2022/07/26 09:58:40;;;;;;;2.53;1.15;;;18.50;80.40;;;;;;5052090;28;20052;-70
2022/07/26 10:01:07;;;;;;;5.65;1.48;;;18.50;81.30;;;;;;5046153;28;20522;-71
2022/07/26 10:03:34;;;;;;;3.83;1.35;;;18.60;81.70;;;;;;5032142;28;20070;-70
2022/07/26 10:06:02;;;;;;;4.30;1.63;;;18.70;82.00;;;;;;5048714;28;20453;-70
2022/07/26 10:08:29;;;;;;;3.13;1.83;;;18.60;82.40;;;;;;5018362;28;20579;-71
2022/07/26 10:11:08;;;;;;;4.03;1.67;;;18.70;82.30;;;;;;5055699;28;20125;-71
2022/07/26 10:13:37;;;;;;;2.63;1.42;;;18.90;82.40;;;;;;5042703;28;20041;-71
2022/07/26 10:16:04;;;;;;;3.40;1.55;;;18.90;81.10;;;;;;5021660;28;20082;-71
2022/07/26 10:18:39;;;;;;;3.60;1.80;;;19.00;81.50;;;;;;5036422;28;20553;-70
2022/07/26 10:21:25;;;;;;;2.97;1.50;;;18.90;80.90;;;;;;5036758;28;20131;-70
2022/07/26 10:24:01;;;;;;;2.53;1.30;;;19.30;80.00;;;;;;5020891;28;20061;-71
2022/07/26 10:26:36;;;;;;;2.95;1.30;;;19.70;77.50;;;;;;5057222;28;20581;-71
2022/07/26 10:29:23;;;;;;;5.53;1.80;;;19.70;77.00;;;;;;5051055;28;20596;-70
2022/07/26 10:31:50;;;;;;;7.55;2.40;;;19.70;77.30;;;;;;5046346;28;20050;-69
2022/07/26 10:34:34;;;;;;;4.78;2.17;;;19.40;78.00;;;;;;5042360;28;20071;-70
2022/07/26 10:37:03;;;;;;;3.65;1.92;;;19.60;77.40;;;;;;5049025;28;20101;-71
2022/07/26 10:39:30;;;;;;;3.00;1.70;;;19.90;76.20;;;;;;5034337;28;20048;-71
2022/07/26 10:42:02;;;;;;;2.63;1.50;;;20.10;75.10;;;;;;5002410;28;20049;-70
2022/07/26 10:44:44;;;;;;;2.92;1.55;;;20.20;73.60;;;;;;5060340;28;20122;-70
2022/07/26 10:47:14;;;;;;;5.00;2.13;;;20.20;73.50;;;;;;5054490;28;20044;-71
2022/07/26 10:49:56;;;;;;;5.63;1.80;;;20.10;74.50;;;;;;5047533;28;20045;-70
2022/07/26 10:52:31;;;;;;;3.20;1.60;;;19.90;75.40;;;;;;5055602;28;20110;-71
2022/07/26 10:55:00;;;;;;;6.55;1.95;;;20.00;75.90;;;;;;5030273;28;20059;-66
2022/07/26 10:57:31;;;;;;;7.25;2.60;;;19.90;76.30;;;;;;5054574;28;20044;-66
2022/07/26 10:59:58;;;;;;;3.20;2.00;;;19.80;76.90;;;;;;5049779;28;20477;-66
2022/07/26 11:02:34;;;;;;;3.40;1.87;;;19.90;77.40;;;;;;5005922;28;20127;-66
2022/07/26 11:05:15;;;;;;;3.70;2.00;;;20.10;77.20;;;;;;5056734;28;20052;-66
2022/07/26 11:08:05;;;;;;;3.65;1.80;;;20.30;77.00;;;;;;5048773;28;20049;-66
2022/07/26 11:10:43;;;;;;;4.03;1.85;;;20.50;76.30;;;;;;5047462;28;20443;-67
2022/07/26 11:13:20;;;;;;;;;;;20.80;74.10;;;;;;5036121;28;20045;-67
2022/07/26 11:15:52;;;;;;;3.67;1.60;;;20.40;73.90;;;;;;5040361;28;19913;-66
2022/07/26 11:18:31;;;;;;;4.65;1.65;;;20.30;73.40;;;;;;5053095;28;20045;-67
2022/07/26 11:21:10;;;;;;;;;;;20.10;74.00;;;;;;5034141;28;20071;-66
2022/07/26 11:23:38;;;;;;;7.13;1.60;;;19.80;74.40;;;;;;5058998;28;19930;-65
2022/07/26 11:26:17;;;;;;;3.63;1.30;;;19.80;74.80;;;;;;5033563;28;20550;-66
2022/07/26 11:28:54;;;;;;;6.22;1.73;;;19.90;74.20;;;;;;5031938;28;20149;-66
2022/07/26 11:31:40;;;;;;;4.70;1.50;;;19.70;75.10;;;;;;5047866;28;20037;-66
2022/07/26 11:34:14;;;;;;;3.95;1.70;;;19.80;74.00;;;;;;5057175;28;20135;-66
2022/07/26 11:36:43;;;;;;;2.80;1.60;;;19.70;74.50;;;;;;5052279;28;20481;-67
2022/07/26 11:39:14;;;;;;;5.35;2.13;;;19.50;75.20;;;;;;5057216;28;20078;-66
2022/07/26 11:41:41;;;;;;;6.30;1.70;;;19.30;76.50;;;;;;5036575;28;20123;-65
2022/07/26 11:44:21;;;;;;;3.83;2.13;;;19.20;76.50;;;;;;5040333;28;20668;-74
2022/07/26 11:46:48;;;;;;;5.88;1.95;;;19.40;76.00;;;;;;5045146;28;20076;-74
2022/07/26 11:49:16;;;;;;;3.78;1.40;;;19.60;75.30;;;;;;5052234;28;20044;-73
2022/07/26 11:51:56;;;;;;;3.75;1.40;;;19.70;74.30;;;;;;5057830;28;20040;-73
2022/07/26 11:54:27;;;;;;;3.50;1.60;;;19.60;75.00;;;;;;5034587;28;20049;-73
2022/07/26 11:57:03;;;;;;;6.35;1.50;;;19.50;74.70;;;;;;5052403;28;20503;-74
2022/07/26 11:59:35;;;;;;;6.10;1.50;;;19.60;74.70;;;;;;5038277;28;20059;-73
2022/07/26 12:02:03;;;;;;;3.58;1.35;;;19.70;74.00;;;;;;5034045;28;20059;-74
2022/07/26 12:04:32;;;;;;;3.40;1.48;;;19.80;73.40;;;;;;5040071;28;20067;-74
2022/07/26 12:07:04;;;;;;;2.70;1.23;;;19.80;73.40;;;;;;5037218;28;20044;-74
2022/07/26 12:09:39;;;;;;;2.20;1.40;;;19.80;72.80;;;;;;5034128;28;20111;-74
2022/07/26 12:12:07;;;;;;;4.32;1.25;;;20.10;72.10;;;;;;5035900;28;20137;-73
2022/07/26 12:14:36;;;;;;;4.78;1.30;;;20.30;71.00;;;;;;5058096;28;20127;-74
2022/07/26 12:17:16;;;;;;;6.22;1.50;;;20.60;69.90;;;;;;5052681;28;20048;-73
2022/07/26 12:19:43;;;;;;;2.75;1.10;;;20.80;69.20;;;;;;5047496;28;20044;-75
2022/07/26 12:22:15;;;;;;;4.25;0.93;;;20.70;67.20;;;;;;5030965;28;20137;-73
2022/07/26 12:24:50;;;;;;;2.60;1.10;;;20.50;68.50;;;;;;5047721;28;20107;-73
2022/07/26 12:27:20;;;;;;;3.17;1.10;;;20.30;69.00;;;;;;5025492;28;20447;-75
2022/07/26 12:29:50;;;;;;;2.90;0.95;;;20.30;68.70;;;;;;5060438;28;20045;-74
2022/07/26 12:32:19;;;;;;;2.53;1.02;;;20.40;68.60;;;;;;5034532;28;20103;-73
2022/07/26 12:34:59;;;;;;;2.95;0.88;;;20.30;69.00;;;;;;5028490;28;20136;-73
2022/07/26 12:37:29;;;;;;;0.93;0.77;;;20.20;68.40;;;;;;5054495;28;20075;-74
2022/07/26 12:40:15;;;;;;;4.07;1.10;;;20.20;68.10;;;;;;5019169;28;20448;-74
2022/07/26 12:42:48;;;;;;;2.78;0.82;;;20.00;68.20;;;;;;5050495;28;20381;-73
2022/07/26 12:45:17;;;;;;;1.63;0.75;;;20.10;68.30;;;;;;5054388;28;20048;-74
2022/07/26 12:47:46;;;;;;;3.15;0.60;;;20.20;67.10;;;;;;5054490;28;20060;-74
2022/07/26 12:50:15;;;;;;;1.85;0.55;;;20.50;66.60;;;;;;5050078;28;20091;-68
2022/07/26 12:52:42;;;;;;;2.83;0.80;;;20.60;65.60;;;;;;5041576;28;20046;-67
2022/07/26 12:55:13;;;;;;;1.60;0.60;;;20.70;64.90;;;;;;5054041;28;20118;-67
2022/07/26 12:57:41;;;;;;;2.05;0.70;;;20.70;64.30;;;;;;5046522;28;20339;-67